Time;durP1;ratioP1;P1;durP2;ratioP2;P2;SDS_P1;SDS_P2;PMS_P1;PMS_P2;Temp;Humidity;BMP_temperature;BMP_pressure;BME280_temperature;BME280_humidity;BME280_pressure;Samples;Min_cycle;Max_cycle;Signal;HPM_P1;HPM_P2
2024/02/09 00:01:18;;;;;;;8.20;2.30;;;;;;;8.28;100.00;95195.94;5022824;28;20142;-59
2024/02/09 00:03:46;;;;;;;15.35;3.28;;;;;;;8.29;100.00;95198.38;5025019;28;20087;-57
2024/02/09 00:06:13;;;;;;;9.38;3.15;;;;;;;8.31;100.00;95192.69;5023833;28;20136;-56
2024/02/09 00:08:42;;;;;;;8.73;2.65;;;;;;;8.30;100.00;95174.91;5027406;28;20041;-57
2024/02/09 00:11:12;;;;;;;12.90;3.13;;;;;;;8.30;100.00;95185.69;5020622;28;20051;-56
2024/02/09 00:13:42;;;;;;;12.93;3.65;;;;;;;8.31;100.00;95173.81;5020478;28;20037;-57
2024/02/09 00:16:09;;;;;;;8.55;2.63;;;;;;;8.28;100.00;95169.00;5024085;28;20099;-57
2024/02/09 00:18:36;;;;;;;15.02;3.42;;;;;;;8.30;100.00;95170.31;5029107;28;20531;-58
2024/02/09 00:21:03;;;;;;;8.27;2.58;;;;;;;8.30;100.00;95167.59;5015348;28;20056;-59
2024/02/09 00:23:32;;;;;;;8.75;2.58;;;;;;;8.27;100.00;95164.69;5027021;28;20125;-56
2024/02/09 00:26:00;;;;;;;10.27;3.03;;;;;;;8.25;100.00;95164.19;5031516;28;20041;-59
2024/02/09 00:28:27;;;;;;;5.75;2.63;;;;;;;8.20;100.00;95155.09;5036680;28;20753;-58
2024/02/09 00:30:54;;;;;;;9.52;3.08;;;;;;;8.22;100.00;95159.38;5024375;28;20524;-57
2024/02/09 00:33:20;;;;;;;7.07;2.55;;;;;;;8.19;100.00;95158.88;5027911;28;20117;-57
2024/02/09 00:35:47;;;;;;;7.80;2.90;;;;;;;8.15;100.00;95165.94;5024076;28;20042;-58
2024/02/09 00:38:15;;;;;;;6.18;2.47;;;;;;;8.19;100.00;95169.66;5026424;28;20041;-57
2024/02/09 00:40:41;;;;;;;11.25;3.30;;;;;;;8.16;100.00;95156.78;5020882;28;20050;-58
2024/02/09 00:43:10;;;;;;;6.57;2.20;;;;;;;8.23;100.00;95156.41;5024253;28;20045;-56
2024/02/09 00:45:38;;;;;;;7.75;1.95;;;;;;;8.31;100.00;95158.44;5024758;28;20041;-57
2024/02/09 00:48:06;;;;;;;10.05;2.83;;;;;;;8.36;100.00;95154.84;5017230;28;20038;-59
2024/02/09 00:50:32;;;;;;;8.40;3.17;;;;;;;8.26;100.00;95155.78;5022278;28;20044;-57
2024/02/09 00:53:04;;;;;;;11.18;1.88;;;;;;;8.15;100.00;95148.97;5022603;28;20591;-58
2024/02/09 00:55:31;;;;;;;8.95;2.80;;;;;;;8.10;100.00;95141.75;5023476;28;20038;-58
2024/02/09 00:57:58;;;;;;;8.40;2.92;;;;;;;8.09;100.00;95155.50;5015948;28;20487;-59
2024/02/09 01:00:30;;;;;;;7.15;2.97;;;;;;;8.06;100.00;95156.91;5019663;28;20051;-58
2024/02/09 01:02:57;;;;;;;6.40;2.47;;;;;;;8.02;100.00;95163.94;5017650;28;20041;-58
2024/02/09 01:05:24;;;;;;;10.30;3.33;;;;;;;8.11;100.00;95153.34;5014033;28;20041;-57
2024/02/09 01:07:51;;;;;;;10.73;2.60;;;;;;;8.03;100.00;95152.88;5026401;28;20063;-58
2024/02/09 01:10:18;;;;;;;11.80;2.58;;;;;;;8.05;100.00;95149.91;5018603;28;20037;-58
2024/02/09 02:46:31;;;;;;;13.38;2.75;;;;;;;7.62;100.00;95084.19;5021613;28;20683;-59
2024/02/09 03:05:42;;;;;;;6.28;1.75;;;;;;;7.95;100.00;95043.06;5021505;28;20300;-58
2024/02/09 03:08:09;;;;;;;8.48;2.00;;;;;;;7.92;100.00;95032.84;5030486;28;20044;-59
2024/02/09 03:10:56;;;;;;;6.10;1.90;;;;;;;7.89;100.00;95036.16;5026311;28;20103;-57
2024/02/09 03:13:22;;;;;;;6.45;2.25;;;;;;;7.87;100.00;95041.00;5020882;28;20048;-57
2024/02/09 03:15:52;;;;;;;8.85;2.38;;;;;;;7.85;100.00;95033.22;5024300;28;20048;-58
2024/02/09 03:18:21;;;;;;;5.10;2.17;;;;;;;7.87;100.00;95033.75;5019703;28;20699;-59
2024/02/09 03:20:47;;;;;;;4.70;2.00;;;;;;;7.97;100.00;95027.41;5019667;28;20052;-59
2024/02/09 03:23:17;;;;;;;7.10;2.08;;;;;;;7.94;100.00;95028.81;5025169;28;20103;-59
2024/02/09 03:25:44;;;;;;;7.63;2.47;;;;;;;7.96;100.00;95023.09;5018759;28;20045;-59
2024/02/09 03:28:11;;;;;;;5.88;1.90;;;;;;;7.97;100.00;95018.50;5014145;28;20559;-58
2024/02/09 03:30:39;;;;;;;5.25;2.05;;;;;;;7.96;100.00;95025.00;5017977;28;20709;-59
2024/02/09 03:33:06;;;;;;;8.00;2.22;;;;;;;7.99;100.00;95021.72;5014864;28;20096;-58
2024/02/09 03:35:33;;;;;;;4.22;1.55;;;;;;;7.98;100.00;95015.53;5027466;28;20072;-59
2024/02/09 03:38:00;;;;;;;8.10;2.35;;;;;;;7.99;100.00;95009.03;5027359;28;20044;-57
2024/02/09 03:40:26;;;;;;;8.73;2.13;;;;;;;7.97;100.00;95013.13;5021382;28;20034;-57
2024/02/09 03:42:53;;;;;;;6.90;1.67;;;;;;;8.02;100.00;95005.75;5019645;28;20556;-59
2024/02/09 03:45:19;;;;;;;6.85;2.03;;;;;;;7.99;100.00;95011.72;5022779;28;20060;-59
2024/02/09 03:47:46;;;;;;;4.18;1.83;;;;;;;8.03;100.00;95009.25;5025601;28;20049;-59
2024/02/09 03:50:14;;;;;;;6.97;1.90;;;;;;;8.01;100.00;95003.34;5021552;28;20489;-58
2024/02/09 03:52:44;;;;;;;6.75;1.75;;;;;;;8.05;100.00;94990.91;5017085;28;21037;-58
2024/02/09 03:55:16;;;;;;;6.60;2.33;;;;;;;8.02;100.00;95003.06;5017623;28;20049;-59
2024/02/09 03:57:45;;;;;;;7.32;2.30;;;;;;;8.05;100.00;94998.97;5013319;28;20536;-59
2024/02/09 04:00:15;;;;;;;7.00;1.90;;;;;;;8.11;100.00;94989.69;5021165;28;20046;-59
2024/02/09 04:02:43;;;;;;;4.60;1.77;;;;;;;8.13;100.00;94984.84;5024075;28;20060;-59
2024/02/09 04:05:09;;;;;;;7.65;1.95;;;;;;;8.20;100.00;94979.88;5029035;28;20734;-58
2024/02/09 04:07:36;;;;;;;5.88;2.33;;;;;;;8.17;100.00;94988.53;5022979;28;20819;-58
2024/02/09 04:10:03;;;;;;;5.15;1.98;;;;;;;8.19;100.00;94985.56;5023707;28;20037;-59
2024/02/09 04:12:49;;;;;;;5.50;2.45;;;;;;;8.13;100.00;94992.91;5027078;28;20051;-59
2024/02/09 04:15:16;;;;;;;7.40;2.25;;;;;;;8.12;100.00;94996.72;5021317;28;20528;-58
2024/02/09 04:17:44;;;;;;;4.75;2.20;;;;;;;8.14;100.00;94997.22;5026772;28;20540;-58
2024/02/09 04:20:11;;;;;;;5.93;1.75;;;;;;;8.16;100.00;94992.34;5030153;28;20046;-59
2024/02/09 04:22:37;;;;;;;7.07;1.85;;;;;;;8.23;100.00;94993.84;5022009;28;20087;-57
2024/02/09 04:25:04;;;;;;;5.90;2.17;;;;;;;8.17;100.00;94996.63;5021445;28;20718;-58
2024/02/09 04:27:30;;;;;;;4.80;2.03;;;;;;;8.15;100.00;94988.03;5021005;28;20069;-56
2024/02/09 04:29:57;;;;;;;5.88;2.00;;;;;;;8.15;100.00;94992.63;5021039;28;20041;-57
2024/02/09 04:32:24;;;;;;;7.80;2.25;;;;;;;8.18;100.00;95000.91;5023218;28;20120;-57
2024/02/09 04:34:51;;;;;;;5.07;1.77;;;;;;;8.17;100.00;94988.53;5010498;28;20045;-58
2024/02/09 04:37:21;;;;;;;5.75;1.75;;;;;;;8.17;100.00;94991.22;5022595;28;20042;-56
2024/02/09 04:39:48;;;;;;;5.95;2.20;;;;;;;8.18;100.00;94995.53;5020020;28;20552;-57
2024/02/09 04:42:14;;;;;;;3.47;1.60;;;;;;;8.30;100.00;94991.56;5019138;28;20092;-58
2024/02/09 04:44:42;;;;;;;5.47;1.65;;;;;;;8.30;100.00;94991.56;5019237;28;20317;-57
2024/02/09 04:47:09;;;;;;;5.35;2.30;;;;;;;8.33;100.00;94993.66;5020018;28;20068;-57
2024/02/09 04:49:35;;;;;;;3.80;1.45;;;;;;;8.33;100.00;94990.97;5015428;28;20041;-57
2024/02/09 04:52:02;;;;;;;6.72;1.70;;;;;;;8.31;100.00;94999.38;5018645;28;20575;-58
2024/02/09 04:54:28;;;;;;;5.43;1.85;;;;;;;8.36;100.00;94993.06;5017206;28;20038;-58
2024/02/09 04:56:56;;;;;;;4.32;1.80;;;;;;;8.38;100.00;94985.50;5020475;28;20050;-57
2024/02/09 04:59:26;;;;;;;4.50;1.55;;;;;;;8.35;100.00;94996.88;5017729;28;20045;-58
2024/02/09 05:01:53;;;;;;;5.45;1.92;;;;;;;8.40;100.00;94988.69;5014792;28;20046;-58
2024/02/09 05:04:19;;;;;;;7.13;2.03;;;;;;;8.41;100.00;94976.00;5022080;28;20088;-57
2024/02/09 05:06:46;;;;;;;6.80;2.58;;;;;;;8.42;100.00;94970.31;5022651;28;20484;-57
2024/02/09 05:09:13;;;;;;;5.45;1.75;;;;;;;8.33;100.00;94958.59;5023832;28;20412;-58
2024/02/09 05:11:41;;;;;;;6.63;2.03;;;;;;;8.33;100.00;94964.00;5027686;28;20135;-58
2024/02/09 05:14:07;;;;;;;8.13;1.92;;;;;;;8.33;100.00;94955.91;5033900;28;20052;-57
2024/02/09 05:16:38;;;;;;;5.00;1.63;;;;;;;8.32;100.00;94955.13;5027196;28;20037;-58
2024/02/09 05:19:12;;;;;;;6.00;1.65;;;;;;;8.38;100.00;94941.53;5023129;28;20741;-58
2024/02/09 05:21:39;;;;;;;5.30;1.50;;;;;;;8.57;100.00;94944.19;5027710;28;20045;-58
2024/02/09 05:24:06;;;;;;;6.18;1.60;;;;;;;8.59;100.00;94942.78;5023955;28;20055;-56
2024/02/09 05:26:33;;;;;;;5.65;2.53;;;;;;;8.58;100.00;94935.00;5024176;28;20346;-58
2024/02/09 05:29:02;;;;;;;5.50;1.42;;;;;;;8.56;100.00;94937.97;5022138;28;20116;-58
2024/02/09 05:31:30;;;;;;;4.13;1.85;;;;;;;8.58;100.00;94943.91;5022943;28;20059;-58
2024/02/09 05:33:57;;;;;;;4.32;1.50;;;;;;;8.56;100.00;94948.00;5020638;28;20120;-58
2024/02/09 05:36:26;;;;;;;5.85;1.73;;;;;;;8.52;100.00;94938.88;5021389;28;20049;-57
2024/02/09 05:38:54;;;;;;;3.70;1.35;;;;;;;8.55;100.00;94946.41;5028442;28;20419;-57
2024/02/09 05:41:21;;;;;;;3.72;1.33;;;;;;;8.57;100.00;94946.88;5027569;28;20078;-57
2024/02/09 05:43:54;;;;;;;11.20;2.25;;;;;;;8.57;100.00;94938.78;5027251;28;20045;-57
2024/02/09 05:46:21;;;;;;;5.82;1.38;;;;;;;8.55;100.00;94941.00;5025561;28;20081;-57
2024/02/09 05:48:49;;;;;;;4.65;2.15;;;;;;;8.56;100.00;94934.50;5032105;28;20053;-56
2024/02/09 05:51:17;;;;;;;3.10;1.45;;;;;;;8.55;100.00;94935.63;5022689;28;20040;-57
2024/02/09 05:53:48;;;;;;;5.25;1.30;;;;;;;8.52;100.00;94931.56;5026018;28;20479;-56
2024/02/09 05:56:25;;;;;;;5.55;1.65;;;;;;;8.48;100.00;94921.69;5017869;28;20044;-57
2024/02/09 05:58:56;;;;;;;2.72;1.10;;;;;;;8.45;100.00;94931.19;5023753;28;20741;-56
2024/02/09 06:01:30;;;;;;;2.85;1.10;;;;;;;8.45;100.00;94929.25;5029609;28;20049;-57
2024/02/09 06:03:56;;;;;;;5.15;1.65;;;;;;;8.39;100.00;94926.97;5024623;28;20649;-57
2024/02/09 06:06:23;;;;;;;3.28;1.33;;;;;;;8.50;100.00;94922.97;5022079;28;20041;-57
2024/02/09 06:08:50;;;;;;;5.72;1.38;;;;;;;8.47;100.00;94934.34;5021447;28;20120;-57
2024/02/09 06:11:17;;;;;;;3.75;1.48;;;;;;;8.49;100.00;94934.88;5027008;28;20048;-57
2024/02/09 06:13:45;;;;;;;3.47;1.55;;;;;;;8.46;100.00;94930.06;5022694;28;20076;-57
2024/02/09 06:16:13;;;;;;;6.20;1.65;;;;;;;8.50;100.00;94920.28;5020892;28;20045;-58
2024/02/09 06:18:40;;;;;;;4.93;1.60;;;;;;;8.51;100.00;94924.56;5020771;28;20073;-58
2024/02/09 06:21:06;;;;;;;3.38;1.35;;;;;;;8.55;100.00;94932.91;5025670;28;20575;-58
2024/02/09 06:23:34;;;;;;;6.95;1.33;;;;;;;8.56;100.00;94927.19;5023126;28;20721;-57
2024/02/09 06:26:02;;;;;;;4.47;1.50;;;;;;;8.61;100.00;94922.81;5029108;28;20106;-58
2024/02/09 06:28:28;;;;;;;5.13;2.08;;;;;;;8.63;100.00;94924.13;5024671;28;20041;-57
2024/02/09 06:30:55;;;;;;;5.60;1.42;;;;;;;8.70;100.00;94921.81;5020179;28;20116;-57
2024/02/09 06:33:22;;;;;;;3.92;1.50;;;;;;;8.76;100.00;94940.59;5020850;28;20042;-57
2024/02/09 06:35:49;;;;;;;4.80;1.42;;;;;;;8.78;100.00;94936.50;5019702;28;20045;-57
2024/02/09 06:38:17;;;;;;;4.32;1.85;;;;;;;8.78;100.00;94931.13;5017601;28;20076;-57
2024/02/09 06:40:45;;;;;;;4.68;1.40;;;;;;;8.80;100.00;94933.50;5021613;28;20065;-56
2024/02/09 06:43:16;;;;;;;4.57;1.40;;;;;;;8.79;100.00;94932.72;5023293;28;20508;-57
2024/02/09 06:45:43;;;;;;;5.78;1.80;;;;;;;8.80;100.00;94931.59;5028180;28;20041;-57
2024/02/09 06:48:09;;;;;;;5.95;1.65;;;;;;;8.85;100.00;94938.81;5015801;28;20037;-57
2024/02/09 06:50:36;;;;;;;6.03;1.98;;;;;;;8.88;100.00;94945.50;5024035;28;20117;-56
2024/02/09 06:53:05;;;;;;;5.55;1.73;;;;;;;8.93;100.00;94943.50;5028105;28;20044;-57
2024/02/09 06:55:33;;;;;;;4.10;1.67;;;;;;;8.90;100.00;94952.19;5026112;28;20052;-58
2024/02/09 06:58:01;;;;;;;4.47;1.48;;;;;;;8.94;100.00;94955.06;5026993;28;20041;-58
2024/02/09 07:00:28;;;;;;;3.30;1.45;;;;;;;8.94;100.00;94955.88;5021376;28;20378;-57
2024/02/09 07:02:55;;;;;;;4.38;1.33;;;;;;;9.10;100.00;94961.75;5022123;28;20103;-58
2024/02/09 07:05:22;;;;;;;5.95;1.70;;;;;;;9.05;100.00;94961.06;5017571;28;20075;-56
2024/02/09 07:07:49;;;;;;;4.30;1.45;;;;;;;9.02;100.00;94957.06;5020618;28;20428;-58
2024/02/09 07:10:18;;;;;;;4.82;1.85;;;;;;;8.90;100.00;94957.59;5021250;28;20513;-57
2024/02/09 07:12:45;;;;;;;5.18;1.90;;;;;;;8.98;100.00;94959.59;5013461;28;20050;-57
2024/02/09 07:15:16;;;;;;;4.65;1.77;;;;;;;8.97;100.00;94960.69;5021160;28;20040;-57
2024/02/09 07:17:43;;;;;;;4.68;1.60;;;;;;;8.97;100.00;94966.09;5019600;28;20053;-57
2024/02/09 07:20:12;;;;;;;4.20;1.40;;;;;;;9.05;100.00;94969.16;5018031;28;20415;-57
2024/02/09 07:22:39;;;;;;;3.72;1.30;;;;;;;9.00;100.00;94967.38;5018955;28;20054;-58
2024/02/09 07:25:06;;;;;;;4.30;1.52;;;;;;;8.91;100.00;94967.28;5017983;28;20439;-57
2024/02/09 07:27:33;;;;;;;7.30;1.50;;;;;;;8.94;100.00;94963.97;5027189;28;20042;-58
2024/02/09 07:29:59;;;;;;;5.00;1.95;;;;;;;8.95;100.00;94956.66;5018771;28;20473;-57
2024/02/09 07:32:26;;;;;;;7.00;2.08;;;;;;;8.95;100.00;94962.88;5019085;28;20553;-58
2024/02/09 07:34:52;;;;;;;5.70;1.77;;;;;;;9.03;100.00;94955.97;5015992;28;20045;-58
2024/02/09 07:37:20;;;;;;;5.15;1.40;;;;;;;8.98;100.00;94958.78;5017818;28;20525;-57
2024/02/09 07:39:47;;;;;;;4.07;1.80;;;;;;;9.06;100.00;94939.16;5019274;28;20046;-58
2024/02/09 07:42:13;;;;;;;5.55;1.55;;;;;;;9.08;100.00;94938.88;5023749;28;20053;-58
2024/02/09 07:44:40;;;;;;;4.43;1.90;;;;;;;9.11;100.00;94938.28;5022901;28;20045;-58
2024/02/09 07:47:07;;;;;;;3.88;1.40;;;;;;;9.21;100.00;94935.34;5014760;28;20041;-58
2024/02/09 07:49:34;;;;;;;4.97;1.77;;;;;;;9.41;100.00;94938.72;5017451;28;20045;-58
2024/02/09 07:52:01;;;;;;;5.75;1.90;;;;;;;9.37;100.00;94941.19;5022397;28;20052;-56
2024/02/09 07:54:31;;;;;;;5.65;1.50;;;;;;;9.54;100.00;94944.38;5022458;28;20049;-58
2024/02/09 07:56:59;;;;;;;4.30;1.48;;;;;;;9.57;100.00;94946.44;5020658;28;20052;-56
2024/02/09 07:59:26;;;;;;;7.57;1.75;;;;;;;9.58;100.00;94961.56;5017318;28;20156;-57
2024/02/09 08:01:53;;;;;;;5.60;1.85;;;;;;;9.82;100.00;94961.28;5001953;28;20056;-57
2024/02/09 08:04:20;;;;;;;4.57;1.50;;;;;;;9.77;100.00;94956.00;5019663;28;20456;-56
2024/02/09 08:06:50;;;;;;;4.50;1.65;;;;;;;9.75;100.00;94948.19;5023868;28;20049;-57
2024/02/09 08:09:16;;;;;;;6.78;1.55;;;;;;;9.67;100.00;94957.03;5022403;28;20088;-56
2024/02/09 08:11:45;;;;;;;5.85;1.48;;;;;;;9.68;100.00;94960.53;5029043;28;20567;-56
2024/02/09 08:14:11;;;;;;;3.72;1.45;;;;;;;9.70;100.00;94958.31;5021424;28;20049;-58
2024/02/09 08:16:38;;;;;;;5.20;2.25;;;;;;;9.69;100.00;94968.31;5021891;28;20099;-58
2024/02/09 08:19:09;;;;;;;3.72;1.52;;;;;;;9.68;100.00;94963.22;5019035;28;20051;-56
2024/02/09 08:21:39;;;;;;;5.53;1.30;;;;;;;9.78;100.00;94973.00;5020979;28;20049;-56
2024/02/09 08:24:10;;;;;;;6.20;1.35;;;;;;;9.72;100.00;94966.91;5019728;28;20284;-57
2024/02/09 08:26:37;;;;;;;;;;;;;;;9.72;100.00;94969.63;5019439;28;20049;-57
2024/02/09 08:29:18;;;;;;;3.78;1.25;;;;;;;9.73;100.00;94971.22;5020897;28;19929;-56
2024/02/09 08:31:45;;;;;;;6.05;1.25;;;;;;;9.67;100.00;94970.56;5019737;28;20535;-57
2024/02/09 08:34:12;;;;;;;4.03;2.00;;;;;;;9.75;100.00;94961.72;5017032;28;20045;-57
2024/02/09 08:36:39;;;;;;;3.60;1.27;;;;;;;9.78;100.00;94959.50;5016076;28;20053;-57
2024/02/09 08:39:06;;;;;;;3.13;1.30;;;;;;;9.65;100.00;94975.44;5019533;28;20060;-58
2024/02/09 08:41:33;;;;;;;5.88;1.42;;;;;;;9.59;100.00;94965.88;5018260;28;20068;-58
2024/02/09 08:44:00;;;;;;;6.60;1.25;;;;;;;9.53;100.00;94967.06;5025019;28;20053;-60
2024/02/09 08:46:26;;;;;;;5.50;1.23;;;;;;;9.41;100.00;94964.91;5021772;28;20049;-58
2024/02/09 08:48:53;;;;;;;3.15;1.10;;;;;;;9.45;100.00;94953.19;5029721;28;20041;-58
2024/02/09 08:51:21;;;;;;;4.05;1.33;;;;;;;9.49;100.00;94958.78;5030300;28;20048;-60
2024/02/09 08:53:47;;;;;;;5.18;1.42;;;;;;;9.49;100.00;94956.09;5029413;28;20068;-58
2024/02/09 08:56:14;;;;;;;3.63;1.20;;;;;;;9.56;100.00;94951.06;5019621;28;20038;-60
2024/02/09 08:58:41;;;;;;;2.47;1.08;;;;;;;9.54;100.00;94952.47;5026519;28;20068;-59
2024/02/09 09:01:08;;;;;;;4.05;1.42;;;;;;;9.61;100.00;94953.66;5011689;28;20056;-60
2024/02/09 09:03:35;;;;;;;3.55;1.38;;;;;;;9.63;100.00;94956.06;5001838;28;20068;-60
2024/02/09 09:06:03;;;;;;;3.13;1.33;;;;;;;9.69;100.00;94957.53;5003016;28;20824;-60
2024/02/09 09:08:30;;;;;;;3.50;1.08;;;;;;;9.76;100.00;94955.19;5019559;28;20049;-60
2024/02/09 09:10:57;;;;;;;3.47;1.20;;;;;;;9.86;100.00;94956.88;5025807;28;20029;-60
2024/02/09 09:13:24;;;;;;;4.00;1.00;;;;;;;10.06;100.00;94960.16;5021506;28;20049;-60
2024/02/09 09:15:51;;;;;;;3.20;1.00;;;;;;;10.09;100.00;94954.16;5028443;28;20551;-60
2024/02/09 09:18:17;;;;;;;2.55;1.10;;;;;;;10.23;100.00;94964.91;5022139;28;20052;-60
2024/02/09 09:20:45;;;;;;;3.30;1.00;;;;;;;10.42;100.00;94955.75;5023364;28;20041;-60
2024/02/09 09:23:12;;;;;;;1.20;0.80;;;;;;;10.39;100.00;94959.88;5026154;28;20120;-57
2024/02/09 09:25:38;;;;;;;7.40;1.42;;;;;;;10.50;100.00;94954.22;5011662;28;20044;-60
2024/02/09 09:28:05;;;;;;;3.42;1.20;;;;;;;10.54;100.00;94945.19;5029509;28;20051;-59
2024/02/09 09:30:33;;;;;;;3.45;1.35;;;;;;;10.53;100.00;94948.19;5006741;28;20045;-58
2024/02/09 09:33:00;;;;;;;2.92;1.13;;;;;;;10.60;100.00;94950.44;5024238;28;20049;-59
2024/02/09 09:35:27;;;;;;;3.25;1.15;;;;;;;10.52;100.00;94947.41;5009933;28;20651;-59
2024/02/09 09:37:54;;;;;;;3.35;1.17;;;;;;;10.58;100.00;94942.66;5033083;28;20056;-58
2024/02/09 09:40:23;;;;;;;2.20;1.05;;;;;;;10.74;100.00;94945.75;5009816;28;20600;-58
2024/02/09 09:42:51;;;;;;;3.70;1.27;;;;;;;10.62;100.00;94943.63;5020277;28;20441;-59
2024/02/09 09:45:18;;;;;;;2.95;1.10;;;;;;;10.70;100.00;94933.16;5012320;28;20072;-58
2024/02/09 09:47:45;;;;;;;4.60;1.27;;;;;;;10.80;100.00;94938.28;5017922;28;20129;-57
2024/02/09 09:50:12;;;;;;;4.97;1.75;;;;;;;10.84;100.00;94933.81;5022081;28;20045;-56
2024/02/09 09:52:48;;;;;;;3.47;1.30;;;;;;;11.11;100.00;94939.31;5023880;28;20111;-57
2024/02/09 09:55:19;;;;;;;2.28;1.10;;;;;;;11.27;100.00;94936.94;5022491;28;20068;-55
2024/02/09 09:57:49;;;;;;;5.05;1.38;;;;;;;10.98;100.00;94931.00;5032535;28;20798;-59
2024/02/09 10:00:17;;;;;;;4.85;1.13;;;;;;;11.01;100.00;94933.09;5021341;28;20040;-59
2024/02/09 10:02:43;;;;;;;4.32;1.52;;;;;;;11.00;100.00;94922.56;5025421;28;20065;-57
2024/02/09 10:05:11;;;;;;;3.97;1.52;;;;;;;11.12;100.00;94930.88;5020356;28;20053;-59
2024/02/09 10:07:41;;;;;;;3.92;1.25;;;;;;;11.18;100.00;94932.31;5024769;28;20046;-59
2024/02/09 10:10:13;;;;;;;3.15;1.02;;;;;;;11.25;100.00;94926.44;5025559;28;20052;-60
2024/02/09 10:12:40;;;;;;;5.57;1.48;;;;;;;11.21;100.00;94922.78;5021450;28;20124;-59
2024/02/09 10:15:07;;;;;;;3.65;1.23;;;;;;;11.21;100.00;94917.38;5028703;28;20045;-54
2024/02/09 10:17:36;;;;;;;4.75;1.42;;;;;;;11.05;100.00;94923.22;5027403;28;20618;-57
2024/02/09 10:20:03;;;;;;;3.97;1.35;;;;;;;11.09;100.00;94922.59;5033145;28;20102;-60
2024/02/09 10:22:30;;;;;;;4.88;1.67;;;;;;;11.07;100.00;94917.50;5013772;28;20044;-59
2024/02/09 10:24:57;;;;;;;5.07;1.77;;;;;;;10.90;100.00;94918.25;5029072;28;20041;-59
2024/02/09 10:27:23;;;;;;;4.53;1.40;;;;;;;10.88;100.00;94915.06;5027385;28;20041;-59
2024/02/09 10:29:51;;;;;;;3.88;1.30;;;;;;;10.91;100.00;94919.84;5024863;28;20102;-59
2024/02/09 10:32:18;;;;;;;4.68;1.30;;;;;;;10.85;100.00;94915.69;5022476;28;20042;-55
2024/02/09 10:34:48;;;;;;;4.35;1.38;;;;;;;10.87;100.00;94914.25;5021458;28;20049;-58
2024/02/09 10:37:15;;;;;;;3.78;1.35;;;;;;;10.88;100.00;94921.25;5026871;28;20038;-61
2024/02/09 10:39:54;;;;;;;3.65;1.45;;;;;;;10.91;100.00;94920.63;5023877;28;20585;-58
2024/02/09 10:42:24;;;;;;;6.32;1.63;;;;;;;10.90;100.00;94915.53;5018968;28;20133;-57
2024/02/09 10:44:55;;;;;;;4.15;1.48;;;;;;;10.96;100.00;94917.00;5018956;28;20040;-59
2024/02/09 10:47:39;;;;;;;5.13;1.60;;;;;;;11.05;100.00;94920.50;5018062;28;20038;-58
2024/02/09 10:50:06;;;;;;;6.68;1.70;;;;;;;11.13;100.00;94918.94;5028461;28;20038;-58
2024/02/09 10:52:37;;;;;;;4.10;1.15;;;;;;;11.23;100.00;94915.13;5029940;28;20038;-57
2024/02/09 10:55:06;;;;;;;4.97;2.20;;;;;;;11.26;100.00;94909.09;5024083;28;20669;-59
2024/02/09 10:57:34;;;;;;;5.78;2.88;;;;;;;11.25;100.00;94906.69;5022320;28;20051;-59
2024/02/09 11:00:09;;;;;;;4.90;3.35;;;;;;;11.37;100.00;94901.44;5020830;28;20043;-59
2024/02/09 11:02:36;;;;;;;4.18;1.92;;;;;;;11.45;100.00;94899.84;5019803;28;20045;-59
2024/02/09 11:05:04;;;;;;;2.85;1.40;;;;;;;11.70;100.00;94895.53;5023897;28;20655;-59
2024/02/09 11:07:32;;;;;;;5.70;2.58;;;;;;;11.79;100.00;94897.44;5018599;28;20075;-59
2024/02/09 11:10:00;;;;;;;5.13;1.52;;;;;;;11.80;100.00;94899.81;5024606;28;20770;-56
2024/02/09 11:12:26;;;;;;;6.40;1.98;;;;;;;11.88;100.00;94892.81;5019475;28;20651;-59
2024/02/09 11:14:53;;;;;;;5.22;1.25;;;;;;;11.98;100.00;94894.38;5027909;28;20424;-59
2024/02/09 11:17:19;;;;;;;4.38;1.88;;;;;;;11.79;100.00;94892.03;5020389;28;20038;-56
2024/02/09 11:19:47;;;;;;;4.10;1.08;;;;;;;11.82;100.00;94886.75;5026447;28;20120;-59
2024/02/09 11:22:14;;;;;;;3.78;1.63;;;;;;;11.69;100.00;94885.00;5017212;28;20476;-58
2024/02/09 11:24:46;;;;;;;3.72;1.73;;;;;;;11.69;100.00;94883.09;5022781;28;20049;-58
2024/02/09 11:27:13;;;;;;;4.32;1.40;;;;;;;11.68;100.00;94886.09;5022028;28;20677;-60
2024/02/09 11:29:40;;;;;;;2.83;1.38;;;;;;;11.54;100.00;94881.66;5028215;28;20049;-60
2024/02/09 11:32:07;;;;;;;4.97;1.35;;;;;;;11.55;100.00;94875.16;5029183;28;20041;-56
2024/02/09 11:34:36;;;;;;;8.45;1.48;;;;;;;11.78;100.00;94885.00;5023693;28;20493;-60
2024/02/09 11:37:04;;;;;;;3.83;1.27;;;;;;;11.60;100.00;94895.06;5019157;28;20045;-58
2024/02/09 11:39:31;;;;;;;5.32;1.40;;;;;;;11.45;100.00;94889.00;5017641;28;22043;-59
2024/02/09 11:41:58;;;;;;;8.15;2.55;;;;;;;11.54;100.00;94878.16;5021312;28;20037;-59
2024/02/09 11:44:25;;;;;;;4.10;1.27;;;;;;;11.56;100.00;94884.06;5024599;28;20057;-60
2024/02/09 11:46:52;;;;;;;4.22;1.63;;;;;;;11.53;100.00;94881.97;5021118;28;20052;-60
2024/02/09 11:49:20;;;;;;;2.95;1.25;;;;;;;11.57;100.00;94878.31;5027536;28;20666;-60
2024/02/09 11:51:47;;;;;;;4.43;1.63;;;;;;;11.75;100.00;94872.88;5022404;28;20043;-60
2024/02/09 11:54:18;;;;;;;4.37;1.33;;;;;;;12.02;100.00;94870.91;5020283;28;20049;-60
2024/02/09 11:56:46;;;;;;;5.55;2.03;;;;;;;11.93;100.00;94870.13;5025517;28;20037;-60
2024/02/09 11:59:12;;;;;;;5.53;1.92;;;;;;;11.96;100.00;94861.34;5020740;28;20046;-58
2024/02/09 12:01:42;;;;;;;5.45;2.08;;;;;;;11.83;100.00;94861.22;5022362;28;20493;-59
2024/02/09 12:04:10;;;;;;;5.32;1.60;;;;;;;11.80;100.00;94869.22;5023512;28;20045;-60
2024/02/09 12:06:37;;;;;;;6.32;2.10;;;;;;;11.71;100.00;94858.38;5026588;28;20041;-59
2024/02/09 12:09:04;;;;;;;3.67;1.52;;;;;;;11.76;100.00;94863.63;5024027;28;20048;-60
2024/02/09 12:11:31;;;;;;;11.43;2.10;;;;;;;11.68;100.00;94859.81;5018189;28;20743;-59
2024/02/09 12:13:58;;;;;;;4.05;1.60;;;;;;;11.67;100.00;94849.28;5023121;28;20522;-59
2024/02/09 12:16:24;;;;;;;3.13;1.50;;;;;;;11.68;100.00;94848.16;5023452;28;20049;-59
2024/02/09 12:18:56;;;;;;;5.50;1.38;;;;;;;11.60;100.00;94854.41;5016555;28;20052;-58
2024/02/09 12:21:24;;;;;;;5.03;1.50;;;;;;;11.60;100.00;94849.78;5017049;28;20065;-59
2024/02/09 12:23:52;;;;;;;6.18;2.65;;;;;;;11.56;100.00;94835.28;5017827;28;20052;-60
2024/02/09 12:26:20;;;;;;;4.55;1.85;;;;;;;11.82;100.00;94837.94;5023308;28;20111;-58
2024/02/09 12:28:47;;;;;;;4.50;1.30;;;;;;;11.70;100.00;94835.09;5020138;28;20136;-60
2024/02/09 12:31:19;;;;;;;6.05;1.98;;;;;;;11.74;100.00;94836.06;5019494;28;20044;-59
2024/02/09 12:33:47;;;;;;;5.75;1.63;;;;;;;11.86;100.00;94837.31;5032445;28;20089;-59
2024/02/09 12:36:19;;;;;;;4.20;1.63;;;;;;;11.92;100.00;94836.00;5020169;28;20046;-60
2024/02/09 12:38:50;;;;;;;3.92;1.40;;;;;;;11.80;100.00;94823.13;5023137;28;20045;-59
2024/02/09 12:41:17;;;;;;;4.10;1.27;;;;;;;11.73;100.00;94836.38;5019921;28;20048;-59
2024/02/09 12:43:44;;;;;;;4.97;1.52;;;;;;;11.66;100.00;94829.53;5019529;28;20057;-58
2024/02/09 12:46:11;;;;;;;5.68;1.85;;;;;;;11.75;100.00;94829.50;5025390;28;20045;-59
2024/02/09 12:48:39;;;;;;;4.03;1.42;;;;;;;11.76;100.00;94822.97;5023162;28;20060;-59
2024/02/09 12:51:05;;;;;;;4.70;1.40;;;;;;;11.66;100.00;94826.03;5028246;28;20045;-55
2024/02/09 12:53:36;;;;;;;5.72;1.67;;;;;;;11.76;100.00;94822.97;5022565;28;20292;-60
2024/02/09 12:56:03;;;;;;;6.15;1.90;;;;;;;11.66;100.00;94817.88;5026457;28;20488;-59
2024/02/09 12:58:30;;;;;;;4.60;1.60;;;;;;;11.62;100.00;94820.47;5024012;28;20045;-57
2024/02/09 13:00:57;;;;;;;6.00;1.83;;;;;;;11.71;100.00;94815.00;5024164;28;20126;-58
2024/02/09 13:03:28;;;;;;;5.57;1.90;;;;;;;11.73;100.00;94809.25;5023427;28;20041;-59
2024/02/09 13:05:55;;;;;;;4.43;1.92;;;;;;;11.70;100.00;94819.66;5025139;28;20057;-59
2024/02/09 13:08:21;;;;;;;4.70;1.80;;;;;;;11.73;100.00;94814.69;5024941;28;20052;-56
2024/02/09 13:10:50;;;;;;;4.82;1.40;;;;;;;11.60;100.00;94817.25;5024852;28;20050;-59
2024/02/09 13:13:18;;;;;;;6.22;2.13;;;;;;;11.59;100.00;94815.66;5017976;28;20038;-60
2024/02/09 13:15:45;;;;;;;4.75;2.15;;;;;;;11.82;100.00;94813.56;5020347;28;20053;-56
2024/02/09 13:18:12;;;;;;;7.40;1.27;;;;;;;11.63;100.00;94813.09;5023302;28;20661;-60
2024/02/09 13:20:41;;;;;;;6.68;2.70;;;;;;;11.57;100.00;94807.06;5020881;28;20124;-58
2024/02/09 13:23:07;;;;;;;6.07;2.80;;;;;;;11.53;100.00;94806.09;5027321;28;20051;-60